sensor_id;sensor_type;location;lat;lon;timestamp;P1;durP1;ratioP1;P2;durP2;ratioP2
39218;SDS011;24934;52.752;6.964;2022-11-20T00:01:24;52.57;;;34.50;;
39218;SDS011;24934;52.752;6.964;2022-11-20T00:03:51;55.97;;;35.00;;
39218;SDS011;24934;52.752;6.964;2022-11-20T00:06:18;611.33;;;242.07;;
39218;SDS011;24934;52.752;6.964;2022-11-20T00:08:45;524.40;;;208.37;;
39218;SDS011;24934;52.752;6.964;2022-11-20T00:11:13;222.53;;;93.33;;
39218;SDS011;24934;52.752;6.964;2022-11-20T00:13:47;123.23;;;58.93;;
39218;SDS011;24934;52.752;6.964;2022-11-20T00:16:15;90.17;;;47.13;;
39218;SDS011;24934;52.752;6.964;2022-11-20T00:18:42;87.00;;;44.43;;
39218;SDS011;24934;52.752;6.964;2022-11-20T00:21:13;90.37;;;47.87;;
39218;SDS011;24934;52.752;6.964;2022-11-20T00:23:43;79.90;;;41.93;;
39218;SDS011;24934;52.752;6.964;2022-11-20T00:26:10;82.20;;;44.13;;
39218;SDS011;24934;52.752;6.964;2022-11-20T00:28:38;82.50;;;45.50;;
39218;SDS011;24934;52.752;6.964;2022-11-20T00:31:12;68.10;;;39.60;;
39218;SDS011;24934;52.752;6.964;2022-11-20T00:33:39;63.00;;;37.73;;
39218;SDS011;24934;52.752;6.964;2022-11-20T00:36:07;54.33;;;35.63;;
39218;SDS011;24934;52.752;6.964;2022-11-20T00:38:37;57.67;;;36.00;;
39218;SDS011;24934;52.752;6.964;2022-11-20T00:41:06;63.60;;;38.63;;
39218;SDS011;24934;52.752;6.964;2022-11-20T00:43:33;55.33;;;35.47;;
39218;SDS011;24934;52.752;6.964;2022-11-20T00:45:59;56.20;;;35.30;;
39218;SDS011;24934;52.752;6.964;2022-11-20T00:48:25;55.40;;;35.97;;
39218;SDS011;24934;52.752;6.964;2022-11-20T00:50:52;52.73;;;34.17;;
39218;SDS011;24934;52.752;6.964;2022-11-20T00:53:18;54.13;;;35.77;;
39218;SDS011;24934;52.752;6.964;2022-11-20T00:55:52;53.00;;;33.67;;
39218;SDS011;24934;52.752;6.964;2022-11-20T00:58:35;50.03;;;33.30;;
39218;SDS011;24934;52.752;6.964;2022-11-20T01:01:03;48.57;;;31.53;;
39218;SDS011;24934;52.752;6.964;2022-11-20T01:03:32;49.87;;;32.47;;
39218;SDS011;24934;52.752;6.964;2022-11-20T01:06:04;51.60;;;33.57;;
39218;SDS011;24934;52.752;6.964;2022-11-20T01:08:32;47.00;;;32.77;;
39218;SDS011;24934;52.752;6.964;2022-11-20T01:11:00;50.03;;;33.43;;
39218;SDS011;24934;52.752;6.964;2022-11-20T01:13:28;47.40;;;32.67;;
39218;SDS011;24934;52.752;6.964;2022-11-20T01:18:38;47.30;;;31.70;;
39218;SDS011;24934;52.752;6.964;2022-11-20T01:21:10;44.77;;;31.17;;
39218;SDS011;24934;52.752;6.964;2022-11-20T01:23:38;45.47;;;29.40;;
39218;SDS011;24934;52.752;6.964;2022-11-20T01:26:07;45.63;;;30.53;;
39218;SDS011;24934;52.752;6.964;2022-11-20T01:28:41;46.60;;;30.93;;
39218;SDS011;24934;52.752;6.964;2022-11-20T01:31:26;43.13;;;29.93;;
39218;SDS011;24934;52.752;6.964;2022-11-20T01:34:01;42.37;;;29.63;;
39218;SDS011;24934;52.752;6.964;2022-11-20T01:36:37;38.23;;;29.03;;
39218;SDS011;24934;52.752;6.964;2022-11-20T01:39:05;41.53;;;29.37;;
39218;SDS011;24934;52.752;6.964;2022-11-20T01:41:33;42.00;;;29.20;;
39218;SDS011;24934;52.752;6.964;2022-11-20T01:44:19;41.73;;;28.43;;
39218;SDS011;24934;52.752;6.964;2022-11-20T01:46:57;40.93;;;28.37;;
39218;SDS011;24934;52.752;6.964;2022-11-20T01:49:28;42.27;;;29.47;;
39218;SDS011;24934;52.752;6.964;2022-11-20T01:51:59;39.50;;;28.60;;
39218;SDS011;24934;52.752;6.964;2022-11-20T01:54:37;40.20;;;28.00;;
39218;SDS011;24934;52.752;6.964;2022-11-20T01:57:10;42.37;;;28.80;;
39218;SDS011;24934;52.752;6.964;2022-11-20T01:59:38;43.60;;;29.10;;
39218;SDS011;24934;52.752;6.964;2022-11-20T02:02:12;39.07;;;27.43;;
39218;SDS011;24934;52.752;6.964;2022-11-20T02:04:39;41.07;;;28.17;;
39218;SDS011;24934;52.752;6.964;2022-11-20T02:07:05;40.23;;;28.73;;
39218;SDS011;24934;52.752;6.964;2022-11-20T02:09:30;37.77;;;27.60;;
39218;SDS011;24934;52.752;6.964;2022-11-20T02:12:08;40.07;;;28.10;;
39218;SDS011;24934;52.752;6.964;2022-11-20T02:14:53;39.70;;;27.90;;
39218;SDS011;24934;52.752;6.964;2022-11-20T02:17:19;40.20;;;27.70;;
39218;SDS011;24934;52.752;6.964;2022-11-20T02:19:45;37.67;;;26.83;;
39218;SDS011;24934;52.752;6.964;2022-11-20T02:22:13;38.07;;;27.33;;
39218;SDS011;24934;52.752;6.964;2022-11-20T02:24:42;40.87;;;28.00;;
39218;SDS011;24934;52.752;6.964;2022-11-20T02:27:12;39.23;;;27.47;;
39218;SDS011;24934;52.752;6.964;2022-11-20T02:29:45;37.27;;;26.70;;
39218;SDS011;24934;52.752;6.964;2022-11-20T02:32:27;38.77;;;27.53;;
39218;SDS011;24934;52.752;6.964;2022-11-20T02:34:54;37.13;;;27.43;;
39218;SDS011;24934;52.752;6.964;2022-11-20T02:37:20;37.43;;;27.03;;
39218;SDS011;24934;52.752;6.964;2022-11-20T02:39:47;39.33;;;27.77;;
39218;SDS011;24934;52.752;6.964;2022-11-20T02:42:15;38.50;;;27.20;;
39218;SDS011;24934;52.752;6.964;2022-11-20T02:44:40;40.70;;;29.00;;
39218;SDS011;24934;52.752;6.964;2022-11-20T02:47:06;40.07;;;26.70;;
39218;SDS011;24934;52.752;6.964;2022-11-20T02:49:36;38.43;;;26.40;;
39218;SDS011;24934;52.752;6.964;2022-11-20T02:52:02;36.10;;;26.60;;
39218;SDS011;24934;52.752;6.964;2022-11-20T02:54:28;38.83;;;26.50;;
39218;SDS011;24934;52.752;6.964;2022-11-20T02:56:53;39.47;;;26.37;;
39218;SDS011;24934;52.752;6.964;2022-11-20T02:59:19;36.83;;;25.53;;
39218;SDS011;24934;52.752;6.964;2022-11-20T03:01:45;40.27;;;26.87;;
39218;SDS011;24934;52.752;6.964;2022-11-20T03:04:10;37.73;;;26.73;;
39218;SDS011;24934;52.752;6.964;2022-11-20T03:06:37;36.23;;;26.67;;
39218;SDS011;24934;52.752;6.964;2022-11-20T03:09:03;38.70;;;27.53;;
39218;SDS011;24934;52.752;6.964;2022-11-20T03:11:29;39.60;;;27.77;;
39218;SDS011;24934;52.752;6.964;2022-11-20T03:13:54;37.90;;;27.80;;
39218;SDS011;24934;52.752;6.964;2022-11-20T03:16:20;38.67;;;27.33;;
39218;SDS011;24934;52.752;6.964;2022-11-20T03:18:47;38.87;;;26.97;;
39218;SDS011;24934;52.752;6.964;2022-11-20T03:21:13;34.83;;;26.63;;
39218;SDS011;24934;52.752;6.964;2022-11-20T03:23:40;38.37;;;26.60;;
39218;SDS011;24934;52.752;6.964;2022-11-20T03:26:07;38.87;;;27.47;;
39218;SDS011;24934;52.752;6.964;2022-11-20T03:28:41;39.10;;;28.20;;
39218;SDS011;24934;52.752;6.964;2022-11-20T03:31:11;38.60;;;27.70;;
39218;SDS011;24934;52.752;6.964;2022-11-20T03:33:39;41.33;;;27.43;;
39218;SDS011;24934;52.752;6.964;2022-11-20T03:36:07;39.37;;;28.07;;
39218;SDS011;24934;52.752;6.964;2022-11-20T03:38:34;36.67;;;27.67;;
39218;SDS011;24934;52.752;6.964;2022-11-20T03:41:01;38.43;;;27.03;;
39218;SDS011;24934;52.752;6.964;2022-11-20T03:43:29;40.27;;;27.97;;
39218;SDS011;24934;52.752;6.964;2022-11-20T03:45:55;41.13;;;26.90;;
39218;SDS011;24934;52.752;6.964;2022-11-20T03:48:21;36.80;;;27.13;;
39218;SDS011;24934;52.752;6.964;2022-11-20T03:50:47;37.43;;;28.27;;
39218;SDS011;24934;52.752;6.964;2022-11-20T03:53:13;37.33;;;27.73;;
39218;SDS011;24934;52.752;6.964;2022-11-20T03:55:39;36.90;;;28.17;;
39218;SDS011;24934;52.752;6.964;2022-11-20T03:58:05;38.73;;;28.20;;
39218;SDS011;24934;52.752;6.964;2022-11-20T04:00:31;39.37;;;27.50;;
39218;SDS011;24934;52.752;6.964;2022-11-20T04:03:00;38.67;;;27.70;;
39218;SDS011;24934;52.752;6.964;2022-11-20T04:05:26;39.80;;;27.07;;
39218;SDS011;24934;52.752;6.964;2022-11-20T04:07:52;37.07;;;26.57;;
39218;SDS011;24934;52.752;6.964;2022-11-20T04:10:18;37.07;;;26.63;;
39218;SDS011;24934;52.752;6.964;2022-11-20T04:12:47;36.03;;;26.30;;
39218;SDS011;24934;52.752;6.964;2022-11-20T04:15:13;36.47;;;26.83;;
39218;SDS011;24934;52.752;6.964;2022-11-20T04:17:38;35.87;;;27.70;;
39218;SDS011;24934;52.752;6.964;2022-11-20T04:20:04;36.03;;;26.80;;
39218;SDS011;24934;52.752;6.964;2022-11-20T04:22:30;35.13;;;26.00;;
39218;SDS011;24934;52.752;6.964;2022-11-20T04:24:56;35.80;;;27.17;;
39218;SDS011;24934;52.752;6.964;2022-11-20T04:27:21;35.27;;;26.23;;
39218;SDS011;24934;52.752;6.964;2022-11-20T04:29:47;37.07;;;26.77;;
39218;SDS011;24934;52.752;6.964;2022-11-20T04:32:12;34.67;;;25.83;;
39218;SDS011;24934;52.752;6.964;2022-11-20T04:34:38;35.20;;;25.00;;
39218;SDS011;24934;52.752;6.964;2022-11-20T04:37:04;33.73;;;24.03;;
39218;SDS011;24934;52.752;6.964;2022-11-20T04:39:30;33.87;;;23.93;;
39218;SDS011;24934;52.752;6.964;2022-11-20T04:41:55;36.33;;;25.30;;
39218;SDS011;24934;52.752;6.964;2022-11-20T04:44:45;31.00;;;22.80;;
39218;SDS011;24934;52.752;6.964;2022-11-20T04:47:11;33.93;;;23.10;;
39218;SDS011;24934;52.752;6.964;2022-11-20T04:49:36;30.93;;;23.57;;
39218;SDS011;24934;52.752;6.964;2022-11-20T04:52:07;32.97;;;23.90;;
39218;SDS011;24934;52.752;6.964;2022-11-20T04:54:41;35.20;;;24.87;;
39218;SDS011;24934;52.752;6.964;2022-11-20T04:57:07;32.97;;;24.20;;
39218;SDS011;24934;52.752;6.964;2022-11-20T04:59:32;31.00;;;24.93;;
39218;SDS011;24934;52.752;6.964;2022-11-20T05:01:58;32.57;;;24.70;;
39218;SDS011;24934;52.752;6.964;2022-11-20T05:04:23;32.23;;;24.57;;
39218;SDS011;24934;52.752;6.964;2022-11-20T05:06:49;31.97;;;24.67;;
39218;SDS011;24934;52.752;6.964;2022-11-20T05:09:15;36.17;;;26.10;;
39218;SDS011;24934;52.752;6.964;2022-11-20T05:11:41;34.00;;;26.07;;
39218;SDS011;24934;52.752;6.964;2022-11-20T05:14:08;34.37;;;25.90;;
39218;SDS011;24934;52.752;6.964;2022-11-20T05:16:34;32.97;;;25.40;;
39218;SDS011;24934;52.752;6.964;2022-11-20T05:19:01;37.63;;;25.97;;
39218;SDS011;24934;52.752;6.964;2022-11-20T05:21:26;35.50;;;26.40;;
39218;SDS011;24934;52.752;6.964;2022-11-20T05:23:52;35.23;;;28.07;;
39218;SDS011;24934;52.752;6.964;2022-11-20T05:26:21;35.50;;;26.27;;
39218;SDS011;24934;52.752;6.964;2022-11-20T05:28:47;34.30;;;25.23;;
39218;SDS011;24934;52.752;6.964;2022-11-20T05:31:16;32.40;;;24.40;;
39218;SDS011;24934;52.752;6.964;2022-11-20T05:33:44;34.43;;;24.73;;
39218;SDS011;24934;52.752;6.964;2022-11-20T05:36:13;36.70;;;25.63;;
39218;SDS011;24934;52.752;6.964;2022-11-20T05:38:39;31.63;;;24.23;;
39218;SDS011;24934;52.752;6.964;2022-11-20T05:41:10;32.03;;;24.63;;
39218;SDS011;24934;52.752;6.964;2022-11-20T05:43:41;35.40;;;24.73;;
39218;SDS011;24934;52.752;6.964;2022-11-20T05:46:09;33.93;;;24.60;;
39218;SDS011;24934;52.752;6.964;2022-11-20T05:48:37;31.50;;;24.50;;
39218;SDS011;24934;52.752;6.964;2022-11-20T05:51:08;35.40;;;26.97;;
39218;SDS011;24934;52.752;6.964;2022-11-20T05:53:35;36.17;;;24.57;;
39218;SDS011;24934;52.752;6.964;2022-11-20T05:56:05;30.97;;;23.80;;
39218;SDS011;24934;52.752;6.964;2022-11-20T05:58:36;32.30;;;24.53;;
39218;SDS011;24934;52.752;6.964;2022-11-20T06:01:05;31.00;;;23.87;;
39218;SDS011;24934;52.752;6.964;2022-11-20T06:03:32;30.77;;;24.30;;
39218;SDS011;24934;52.752;6.964;2022-11-20T06:06:01;31.83;;;24.17;;
39218;SDS011;24934;52.752;6.964;2022-11-20T06:08:31;36.40;;;24.63;;
39218;SDS011;24934;52.752;6.964;2022-11-20T06:10:57;32.33;;;24.93;;
39218;SDS011;24934;52.752;6.964;2022-11-20T06:13:23;31.57;;;23.43;;
39218;SDS011;24934;52.752;6.964;2022-11-20T06:15:49;31.33;;;24.20;;
39218;SDS011;24934;52.752;6.964;2022-11-20T06:18:19;34.93;;;24.80;;
39218;SDS011;24934;52.752;6.964;2022-11-20T06:20:45;32.47;;;24.20;;
39218;SDS011;24934;52.752;6.964;2022-11-20T06:23:11;30.60;;;23.23;;
39218;SDS011;24934;52.752;6.964;2022-11-20T06:25:40;29.87;;;23.77;;
39218;SDS011;24934;52.752;6.964;2022-11-20T06:28:07;31.57;;;24.70;;
39218;SDS011;24934;52.752;6.964;2022-11-20T06:30:32;35.70;;;25.43;;
39218;SDS011;24934;52.752;6.964;2022-11-20T06:32:58;33.47;;;25.10;;
39218;SDS011;24934;52.752;6.964;2022-11-20T06:35:24;32.10;;;24.17;;
39218;SDS011;24934;52.752;6.964;2022-11-20T06:37:52;31.30;;;22.80;;
39218;SDS011;24934;52.752;6.964;2022-11-20T06:40:18;33.57;;;24.67;;
39218;SDS011;24934;52.752;6.964;2022-11-20T06:42:43;32.97;;;24.80;;
39218;SDS011;24934;52.752;6.964;2022-11-20T06:45:09;31.70;;;24.10;;
39218;SDS011;24934;52.752;6.964;2022-11-20T06:47:35;31.33;;;23.93;;
39218;SDS011;24934;52.752;6.964;2022-11-20T06:50:00;34.50;;;24.13;;
39218;SDS011;24934;52.752;6.964;2022-11-20T06:52:26;31.23;;;24.23;;
39218;SDS011;24934;52.752;6.964;2022-11-20T06:54:52;32.83;;;24.43;;
39218;SDS011;24934;52.752;6.964;2022-11-20T06:57:26;30.40;;;23.63;;
39218;SDS011;24934;52.752;6.964;2022-11-20T06:59:53;30.97;;;23.87;;
39218;SDS011;24934;52.752;6.964;2022-11-20T07:02:19;34.57;;;23.37;;
39218;SDS011;24934;52.752;6.964;2022-11-20T07:04:48;29.00;;;22.50;;
39218;SDS011;24934;52.752;6.964;2022-11-20T07:07:14;31.70;;;24.03;;
39218;SDS011;24934;52.752;6.964;2022-11-20T07:09:42;32.60;;;23.17;;
39218;SDS011;24934;52.752;6.964;2022-11-20T07:12:08;30.93;;;23.80;;
39218;SDS011;24934;52.752;6.964;2022-11-20T07:14:34;30.77;;;23.67;;
39218;SDS011;24934;52.752;6.964;2022-11-20T07:17:03;31.67;;;24.33;;
39218;SDS011;24934;52.752;6.964;2022-11-20T07:19:29;33.60;;;24.63;;
39218;SDS011;24934;52.752;6.964;2022-11-20T07:21:54;33.20;;;23.83;;
39218;SDS011;24934;52.752;6.964;2022-11-20T07:24:20;31.80;;;24.73;;
39218;SDS011;24934;52.752;6.964;2022-11-20T07:26:46;33.17;;;24.57;;
39218;SDS011;24934;52.752;6.964;2022-11-20T07:29:14;32.53;;;24.93;;
39218;SDS011;24934;52.752;6.964;2022-11-20T07:31:41;34.33;;;24.27;;
39218;SDS011;24934;52.752;6.964;2022-11-20T07:34:08;35.30;;;25.00;;
39218;SDS011;24934;52.752;6.964;2022-11-20T07:36:33;29.73;;;24.60;;
39218;SDS011;24934;52.752;6.964;2022-11-20T07:38:59;31.00;;;24.57;;
39218;SDS011;24934;52.752;6.964;2022-11-20T07:41:25;32.57;;;24.80;;
39218;SDS011;24934;52.752;6.964;2022-11-20T07:43:52;33.87;;;25.40;;
39218;SDS011;24934;52.752;6.964;2022-11-20T07:46:21;32.03;;;25.00;;
39218;SDS011;24934;52.752;6.964;2022-11-20T07:48:46;30.83;;;23.93;;
39218;SDS011;24934;52.752;6.964;2022-11-20T07:51:12;31.60;;;23.67;;
39218;SDS011;24934;52.752;6.964;2022-11-20T07:53:38;31.80;;;23.47;;
39218;SDS011;24934;52.752;6.964;2022-11-20T07:56:04;33.57;;;23.90;;
39218;SDS011;24934;52.752;6.964;2022-11-20T07:58:30;31.10;;;23.80;;
39218;SDS011;24934;52.752;6.964;2022-11-20T08:01:04;30.73;;;22.83;;
39218;SDS011;24934;52.752;6.964;2022-11-20T08:03:31;29.30;;;23.20;;
39218;SDS011;24934;52.752;6.964;2022-11-20T08:06:03;31.47;;;23.97;;
39218;SDS011;24934;52.752;6.964;2022-11-20T08:08:28;29.73;;;22.90;;
39218;SDS011;24934;52.752;6.964;2022-11-20T08:10:56;30.97;;;23.07;;
39218;SDS011;24934;52.752;6.964;2022-11-20T08:13:42;32.70;;;23.77;;
39218;SDS011;24934;52.752;6.964;2022-11-20T08:16:27;29.67;;;22.90;;
39218;SDS011;24934;52.752;6.964;2022-11-20T08:18:55;31.20;;;23.40;;
39218;SDS011;24934;52.752;6.964;2022-11-20T08:21:21;29.50;;;23.00;;
39218;SDS011;24934;52.752;6.964;2022-11-20T08:23:47;29.57;;;23.17;;
39218;SDS011;24934;52.752;6.964;2022-11-20T08:26:12;29.40;;;22.70;;
39218;SDS011;24934;52.752;6.964;2022-11-20T08:28:38;30.47;;;23.33;;
39218;SDS011;24934;52.752;6.964;2022-11-20T08:31:03;30.20;;;23.27;;
39218;SDS011;24934;52.752;6.964;2022-11-20T08:33:29;29.23;;;22.77;;
39218;SDS011;24934;52.752;6.964;2022-11-20T08:36:01;30.33;;;23.13;;
39218;SDS011;24934;52.752;6.964;2022-11-20T08:38:28;32.43;;;23.47;;
39218;SDS011;24934;52.752;6.964;2022-11-20T08:40:58;30.33;;;23.20;;
39218;SDS011;24934;52.752;6.964;2022-11-20T08:43:45;27.93;;;22.67;;
39218;SDS011;24934;52.752;6.964;2022-11-20T08:46:11;27.17;;;22.70;;
39218;SDS011;24934;52.752;6.964;2022-11-20T08:48:37;29.60;;;23.10;;
39218;SDS011;24934;52.752;6.964;2022-11-20T08:51:02;26.80;;;22.07;;
39218;SDS011;24934;52.752;6.964;2022-11-20T08:53:28;27.20;;;22.73;;
39218;SDS011;24934;52.752;6.964;2022-11-20T08:55:54;28.90;;;22.13;;
39218;SDS011;24934;52.752;6.964;2022-11-20T08:58:21;31.17;;;23.33;;
39218;SDS011;24934;52.752;6.964;2022-11-20T09:00:46;28.67;;;22.90;;
39218;SDS011;24934;52.752;6.964;2022-11-20T09:03:12;29.93;;;23.97;;
39218;SDS011;24934;52.752;6.964;2022-11-20T09:05:38;29.73;;;23.40;;
39218;SDS011;24934;52.752;6.964;2022-11-20T09:08:04;28.40;;;23.17;;
39218;SDS011;24934;52.752;6.964;2022-11-20T09:10:30;28.70;;;22.37;;
39218;SDS011;24934;52.752;6.964;2022-11-20T09:12:55;33.63;;;25.63;;
39218;SDS011;24934;52.752;6.964;2022-11-20T09:15:21;27.67;;;23.37;;
39218;SDS011;24934;52.752;6.964;2022-11-20T09:17:53;28.00;;;22.73;;
39218;SDS011;24934;52.752;6.964;2022-11-20T09:20:20;25.60;;;22.70;;
39218;SDS011;24934;52.752;6.964;2022-11-20T09:22:46;29.90;;;23.73;;
39218;SDS011;24934;52.752;6.964;2022-11-20T09:25:15;28.00;;;22.43;;
39218;SDS011;24934;52.752;6.964;2022-11-20T09:27:41;25.50;;;22.80;;
39218;SDS011;24934;52.752;6.964;2022-11-20T09:30:08;25.77;;;22.00;;
39218;SDS011;24934;52.752;6.964;2022-11-20T09:32:34;27.30;;;22.30;;
39218;SDS011;24934;52.752;6.964;2022-11-20T09:35:09;27.30;;;22.67;;
39218;SDS011;24934;52.752;6.964;2022-11-20T09:37:35;26.70;;;21.90;;
39218;SDS011;24934;52.752;6.964;2022-11-20T09:40:03;27.23;;;22.00;;
39218;SDS011;24934;52.752;6.964;2022-11-20T09:42:54;27.07;;;21.73;;
39218;SDS011;24934;52.752;6.964;2022-11-20T09:50:43;25.80;;;21.23;;
39218;SDS011;24934;52.752;6.964;2022-11-20T09:56:02;26.50;;;21.43;;
39218;SDS011;24934;52.752;6.964;2022-11-20T10:00:58;25.63;;;21.40;;
39218;SDS011;24934;52.752;6.964;2022-11-20T10:06:21;24.33;;;21.30;;
39218;SDS011;24934;52.752;6.964;2022-11-20T10:26:19;24.13;;;19.70;;
39218;SDS011;24934;52.752;6.964;2022-11-20T10:28:56;23.40;;;20.57;;
39218;SDS011;24934;52.752;6.964;2022-11-20T10:34:01;21.50;;;18.97;;
39218;SDS011;24934;52.752;6.964;2022-11-20T10:36:43;26.60;;;20.87;;
39218;SDS011;24934;52.752;6.964;2022-11-20T10:41:51;21.00;;;18.27;;
39218;SDS011;24934;52.752;6.964;2022-11-20T10:44:21;20.30;;;18.30;;
39218;SDS011;24934;52.752;6.964;2022-11-20T10:47:16;17.77;;;16.07;;
39218;SDS011;24934;52.752;6.964;2022-11-20T10:49:46;18.63;;;16.83;;
39218;SDS011;24934;52.752;6.964;2022-11-20T10:52:22;19.87;;;16.73;;
39218;SDS011;24934;52.752;6.964;2022-11-20T10:55:06;20.77;;;18.77;;
39218;SDS011;24934;52.752;6.964;2022-11-20T10:58:00;20.13;;;17.87;;
39218;SDS011;24934;52.752;6.964;2022-11-20T11:00:38;19.83;;;17.73;;
39218;SDS011;24934;52.752;6.964;2022-11-20T11:03:13;21.10;;;17.40;;
39218;SDS011;24934;52.752;6.964;2022-11-20T11:06:01;16.97;;;15.30;;
39218;SDS011;24934;52.752;6.964;2022-11-20T11:08:46;18.57;;;16.73;;
39218;SDS011;24934;52.752;6.964;2022-11-20T11:14:07;18.77;;;16.87;;
39218;SDS011;24934;52.752;6.964;2022-11-20T11:16:35;17.63;;;15.90;;
39218;SDS011;24934;52.752;6.964;2022-11-20T11:19:04;18.40;;;16.43;;
39218;SDS011;24934;52.752;6.964;2022-11-20T11:21:30;19.60;;;17.50;;
39218;SDS011;24934;52.752;6.964;2022-11-20T11:23:57;18.13;;;16.23;;
39218;SDS011;24934;52.752;6.964;2022-11-20T11:26:28;18.13;;;16.30;;
39218;SDS011;24934;52.752;6.964;2022-11-20T11:29:00;19.67;;;17.23;;
39218;SDS011;24934;52.752;6.964;2022-11-20T11:31:34;18.43;;;16.50;;
39218;SDS011;24934;52.752;6.964;2022-11-20T11:34:13;21.17;;;17.00;;
39218;SDS011;24934;52.752;6.964;2022-11-20T11:36:40;18.47;;;16.63;;
39218;SDS011;24934;52.752;6.964;2022-11-20T11:39:17;17.70;;;15.80;;
39218;SDS011;24934;52.752;6.964;2022-11-20T11:41:45;18.83;;;16.47;;
39218;SDS011;24934;52.752;6.964;2022-11-20T11:47:03;18.93;;;16.93;;
39218;SDS011;24934;52.752;6.964;2022-11-20T11:49:31;19.00;;;17.07;;
39218;SDS011;24934;52.752;6.964;2022-11-20T11:54:42;19.43;;;17.03;;
39218;SDS011;24934;52.752;6.964;2022-11-20T12:05:18;18.37;;;16.50;;
39218;SDS011;24934;52.752;6.964;2022-11-20T12:08:06;18.70;;;16.70;;
39218;SDS011;24934;52.752;6.964;2022-11-20T12:15:50;22.73;;;19.83;;
39218;SDS011;24934;52.752;6.964;2022-11-20T12:18:20;20.43;;;18.33;;
39218;SDS011;24934;52.752;6.964;2022-11-20T12:24:00;21.83;;;19.57;;
39218;SDS011;24934;52.752;6.964;2022-11-20T12:29:26;24.67;;;19.77;;
39218;SDS011;24934;52.752;6.964;2022-11-20T12:34:44;21.20;;;18.83;;
39218;SDS011;24934;52.752;6.964;2022-11-20T12:37:53;20.90;;;18.70;;
39218;SDS011;24934;52.752;6.964;2022-11-20T12:40:35;18.80;;;16.80;;
39218;SDS011;24934;52.752;6.964;2022-11-20T12:43:21;18.90;;;17.00;;
39218;SDS011;24934;52.752;6.964;2022-11-20T12:49:01;19.30;;;17.27;;
39218;SDS011;24934;52.752;6.964;2022-11-20T12:52:03;19.60;;;17.40;;
39218;SDS011;24934;52.752;6.964;2022-11-20T12:54:58;20.40;;;18.20;;
39218;SDS011;24934;52.752;6.964;2022-11-20T12:57:50;20.13;;;17.47;;
39218;SDS011;24934;52.752;6.964;2022-11-20T13:00:23;19.97;;;17.37;;
39218;SDS011;24934;52.752;6.964;2022-11-20T13:05:46;22.90;;;18.27;;
39218;SDS011;24934;52.752;6.964;2022-11-20T13:08:36;20.50;;;18.30;;
39218;SDS011;24934;52.752;6.964;2022-11-20T13:11:15;21.57;;;18.70;;
39218;SDS011;24934;52.752;6.964;2022-11-20T13:19:02;21.40;;;18.80;;
39218;SDS011;24934;52.752;6.964;2022-11-20T13:21:39;23.67;;;19.43;;
39218;SDS011;24934;52.752;6.964;2022-11-20T13:26:48;24.57;;;20.80;;
39218;SDS011;24934;52.752;6.964;2022-11-20T13:29:25;24.33;;;20.17;;
39218;SDS011;24934;52.752;6.964;2022-11-20T13:32:00;25.77;;;20.73;;
39218;SDS011;24934;52.752;6.964;2022-11-20T13:34:31;27.97;;;20.93;;
39218;SDS011;24934;52.752;6.964;2022-11-20T13:36:57;27.80;;;22.07;;
39218;SDS011;24934;52.752;6.964;2022-11-20T13:39:35;25.87;;;21.60;;
39218;SDS011;24934;52.752;6.964;2022-11-20T13:42:03;26.50;;;21.73;;
39218;SDS011;24934;52.752;6.964;2022-11-20T13:44:38;25.33;;;21.67;;
39218;SDS011;24934;52.752;6.964;2022-11-20T13:49:50;39.70;;;26.80;;
39218;SDS011;24934;52.752;6.964;2022-11-20T13:52:28;30.90;;;25.07;;
39218;SDS011;24934;52.752;6.964;2022-11-20T13:57:48;29.80;;;22.00;;
39218;SDS011;24934;52.752;6.964;2022-11-20T14:00:21;26.33;;;21.70;;
39218;SDS011;24934;52.752;6.964;2022-11-20T14:02:59;29.53;;;23.00;;
39218;SDS011;24934;52.752;6.964;2022-11-20T14:05:30;27.30;;;21.83;;
39218;SDS011;24934;52.752;6.964;2022-11-20T14:08:00;28.33;;;23.33;;
39218;SDS011;24934;52.752;6.964;2022-11-20T14:10:30;25.73;;;21.20;;
39218;SDS011;24934;52.752;6.964;2022-11-20T14:12:56;26.87;;;21.50;;
39218;SDS011;24934;52.752;6.964;2022-11-20T14:15:26;27.93;;;21.80;;
39218;SDS011;24934;52.752;6.964;2022-11-20T14:17:53;30.90;;;22.97;;
39218;SDS011;24934;52.752;6.964;2022-11-20T14:20:20;30.40;;;22.63;;
39218;SDS011;24934;52.752;6.964;2022-11-20T14:22:50;35.73;;;25.70;;
39218;SDS011;24934;52.752;6.964;2022-11-20T14:27:47;41.37;;;28.30;;
39218;SDS011;24934;52.752;6.964;2022-11-20T14:30:20;41.97;;;29.17;;
39218;SDS011;24934;52.752;6.964;2022-11-20T14:33:04;44.90;;;30.43;;
39218;SDS011;24934;52.752;6.964;2022-11-20T14:35:31;31.40;;;25.40;;
39218;SDS011;24934;52.752;6.964;2022-11-20T14:38:00;31.27;;;24.03;;
39218;SDS011;24934;52.752;6.964;2022-11-20T14:40:28;33.57;;;25.60;;
39218;SDS011;24934;52.752;6.964;2022-11-20T14:42:54;31.93;;;24.40;;
39218;SDS011;24934;52.752;6.964;2022-11-20T14:45:21;34.53;;;25.47;;
39218;SDS011;24934;52.752;6.964;2022-11-20T14:47:47;30.73;;;23.67;;
39218;SDS011;24934;52.752;6.964;2022-11-20T14:50:16;33.23;;;23.97;;
39218;SDS011;24934;52.752;6.964;2022-11-20T14:52:53;30.43;;;24.40;;
39218;SDS011;24934;52.752;6.964;2022-11-20T14:55:28;30.90;;;23.77;;
39218;SDS011;24934;52.752;6.964;2022-11-20T14:58:05;31.30;;;23.60;;
39218;SDS011;24934;52.752;6.964;2022-11-20T15:00:52;32.37;;;24.57;;
39218;SDS011;24934;52.752;6.964;2022-11-20T15:03:32;30.70;;;24.00;;
39218;SDS011;24934;52.752;6.964;2022-11-20T15:05:59;34.90;;;27.03;;
39218;SDS011;24934;52.752;6.964;2022-11-20T15:08:24;32.87;;;23.77;;
39218;SDS011;24934;52.752;6.964;2022-11-20T15:10:51;39.60;;;28.73;;
39218;SDS011;24934;52.752;6.964;2022-11-20T15:16:01;41.77;;;28.30;;
39218;SDS011;24934;52.752;6.964;2022-11-20T15:21:12;35.10;;;25.43;;
39218;SDS011;24934;52.752;6.964;2022-11-20T15:23:39;33.90;;;25.47;;
39218;SDS011;24934;52.752;6.964;2022-11-20T15:26:06;38.23;;;26.40;;
39218;SDS011;24934;52.752;6.964;2022-11-20T15:28:39;32.50;;;25.13;;
39218;SDS011;24934;52.752;6.964;2022-11-20T15:31:09;30.63;;;23.63;;
39218;SDS011;24934;52.752;6.964;2022-11-20T15:33:37;34.43;;;24.93;;
39218;SDS011;24934;52.752;6.964;2022-11-20T15:36:03;31.60;;;23.23;;
39218;SDS011;24934;52.752;6.964;2022-11-20T15:38:29;34.80;;;25.37;;
39218;SDS011;24934;52.752;6.964;2022-11-20T15:40:55;37.63;;;25.17;;
39218;SDS011;24934;52.752;6.964;2022-11-20T15:43:20;33.40;;;23.77;;
39218;SDS011;24934;52.752;6.964;2022-11-20T15:45:47;37.17;;;26.47;;
39218;SDS011;24934;52.752;6.964;2022-11-20T15:48:22;32.37;;;24.20;;
39218;SDS011;24934;52.752;6.964;2022-11-20T15:51:05;32.60;;;23.80;;
39218;SDS011;24934;52.752;6.964;2022-11-20T15:53:35;36.77;;;24.30;;
39218;SDS011;24934;52.752;6.964;2022-11-20T15:56:05;37.10;;;25.23;;
39218;SDS011;24934;52.752;6.964;2022-11-20T15:58:31;35.67;;;24.00;;
39218;SDS011;24934;52.752;6.964;2022-11-20T16:00:56;34.47;;;25.10;;
39218;SDS011;24934;52.752;6.964;2022-11-20T16:03:22;34.00;;;24.27;;
39218;SDS011;24934;52.752;6.964;2022-11-20T16:05:48;35.37;;;24.47;;
39218;SDS011;24934;52.752;6.964;2022-11-20T16:08:14;33.57;;;24.80;;
39218;SDS011;24934;52.752;6.964;2022-11-20T16:10:40;39.23;;;26.03;;
39218;SDS011;24934;52.752;6.964;2022-11-20T16:13:13;38.23;;;26.00;;